createdAt,value
2023-03-15T00:02:06.758Z,5.98
2023-03-15T00:04:39.355Z,5.98
2023-03-15T00:07:07.012Z,5.95
2023-03-15T00:09:34.717Z,5.96
2023-03-15T00:12:03.448Z,5.88
2023-03-15T00:14:31.794Z,5.82
2023-03-15T00:16:59.317Z,5.82
2023-03-15T00:19:30.201Z,5.76
2023-03-15T00:21:57.922Z,5.77
2023-03-15T00:24:25.504Z,5.76
2023-03-15T00:26:53.181Z,5.74
2023-03-15T00:29:21.073Z,5.71
2023-03-15T00:31:54.405Z,5.71
2023-03-15T00:34:25.936Z,5.71
2023-03-15T00:36:53.968Z,5.74
2023-03-15T00:39:21.688Z,5.70
2023-03-15T00:41:49.359Z,5.70
2023-03-15T00:44:19.468Z,5.66
2023-03-15T00:46:47.690Z,5.64
2023-03-15T00:49:15.237Z,5.59
2023-03-15T00:51:43.567Z,5.54
2023-03-15T00:54:13.965Z,5.52
2023-03-15T00:56:41.773Z,5.53
2023-03-15T00:59:09.372Z,5.45
2023-03-15T01:01:38.654Z,5.42
2023-03-15T01:04:06.767Z,5.32
2023-03-15T01:06:34.843Z,5.26
2023-03-15T01:09:02.415Z,5.29
2023-03-15T01:11:30.557Z,5.31
2023-03-15T01:13:59.943Z,5.25
2023-03-15T01:16:34.448Z,5.23
2023-03-15T01:19:02.599Z,5.24
2023-03-15T01:21:30.548Z,5.26
2023-03-15T01:23:58.149Z,5.26
2023-03-15T01:26:25.804Z,5.21
2023-03-15T01:28:55.277Z,5.15
2023-03-15T01:31:26.344Z,5.09
2023-03-15T01:33:54.646Z,5.07
2023-03-15T01:36:22.436Z,5.07
2023-03-15T01:38:51.122Z,5.03
2023-03-15T01:41:24.874Z,5.03
2023-03-15T01:43:53.545Z,4.96
2023-03-15T01:46:35.413Z,4.96
2023-03-15T01:49:25.835Z,4.98
2023-03-15T01:52:25.408Z,4.91
2023-03-15T01:55:02.566Z,4.89
2023-03-15T01:57:56.180Z,4.91
2023-03-15T02:00:26.716Z,4.98
2023-03-15T02:03:14.627Z,4.98
2023-03-15T02:05:54.773Z,5.00
2023-03-15T02:08:39.775Z,4.93
2023-03-15T02:11:07.934Z,4.97
2023-03-15T02:13:37.456Z,4.97
2023-03-15T02:16:11.199Z,5.00
2023-03-15T02:18:45.774Z,4.96
2023-03-15T02:21:41.080Z,5.02
2023-03-15T02:24:38.931Z,5.04
2023-03-15T02:27:07.875Z,5.04
2023-03-15T02:29:36.139Z,5.02
2023-03-15T02:32:06.860Z,5.03
2023-03-15T02:34:35.613Z,5.03
2023-03-15T02:37:03.669Z,5.04
2023-03-15T02:39:32.114Z,5.05
2023-03-15T02:41:59.954Z,4.93
2023-03-15T02:44:41.496Z,4.99
2023-03-15T02:47:12.939Z,5.00
2023-03-15T02:49:43.825Z,5.00
2023-03-15T02:52:14.090Z,5.04
2023-03-15T02:54:43.688Z,5.01
2023-03-15T02:57:14.554Z,5.05
2023-03-15T02:59:43.269Z,5.08
2023-03-15T03:02:13.833Z,4.94
2023-03-15T03:04:44.287Z,4.92
2023-03-15T03:07:12.386Z,4.82
2023-03-15T03:09:53.849Z,4.82
2023-03-15T03:12:22.837Z,4.79
2023-03-15T03:14:53.144Z,4.78
2023-03-15T03:17:25.046Z,4.88
2023-03-15T03:19:53.329Z,4.97
2023-03-15T03:22:27.152Z,4.90
2023-03-15T03:24:55.565Z,4.84
2023-03-15T03:27:25.860Z,4.79
2023-03-15T03:29:53.809Z,4.78
2023-03-15T03:32:21.752Z,4.73
2023-03-15T03:34:49.591Z,4.63
2023-03-15T03:37:21.678Z,4.53
2023-03-15T03:39:58.945Z,4.52
2023-03-15T03:42:27.245Z,4.52
2023-03-15T03:44:54.924Z,4.58
2023-03-15T03:47:25.047Z,4.55
2023-03-15T03:49:52.823Z,4.56
2023-03-15T03:52:26.141Z,4.50
2023-03-15T03:55:00.958Z,4.37
2023-03-15T03:57:28.801Z,4.41
2023-03-15T03:59:58.660Z,4.43
2023-03-15T04:02:26.465Z,4.30
2023-03-15T04:05:06.604Z,4.33
2023-03-15T04:07:34.570Z,4.26
2023-03-15T04:10:02.593Z,4.26
2023-03-15T04:12:31.214Z,4.30
2023-03-15T04:15:00.045Z,4.32
2023-03-15T04:17:34.066Z,4.27
2023-03-15T04:20:06.962Z,4.34
2023-03-15T04:22:38.738Z,4.37
2023-03-15T04:25:39.914Z,4.49
2023-03-15T04:28:38.079Z,4.43
2023-03-15T04:31:28.656Z,4.39
2023-03-15T04:34:14.885Z,4.52
2023-03-15T04:37:15.216Z,4.54
2023-03-15T04:40:09.275Z,4.62
2023-03-15T04:42:58.466Z,4.59
2023-03-15T04:45:52.065Z,4.70
2023-03-15T04:48:32.108Z,4.70
2023-03-15T04:51:17.839Z,4.66
2023-03-15T04:53:53.053Z,4.66
2023-03-15T04:56:28.363Z,4.67
2023-03-15T04:59:12.005Z,4.66
2023-03-15T05:02:03.949Z,4.70
2023-03-15T05:04:37.581Z,4.72
2023-03-15T05:07:40.791Z,4.55
2023-03-15T05:10:29.770Z,4.36
2023-03-15T05:13:24.000Z,4.52
2023-03-15T05:16:10.139Z,4.60
2023-03-15T05:18:45.441Z,4.68
2023-03-15T05:21:35.353Z,4.74
2023-03-15T05:24:21.960Z,4.87
2023-03-15T05:27:12.031Z,4.75
2023-03-15T05:29:51.083Z,4.79
2023-03-15T05:32:26.942Z,4.85
2023-03-15T05:35:13.508Z,4.89
2023-03-15T05:37:50.127Z,4.90
2023-03-15T05:40:50.803Z,4.94
2023-03-15T05:43:41.725Z,4.94
2023-03-15T05:46:28.161Z,4.98
2023-03-15T05:49:19.019Z,5.00
2023-03-15T05:51:54.776Z,5.07
2023-03-15T05:54:36.063Z,5.22
2023-03-15T05:57:06.432Z,5.19
2023-03-15T05:59:40.760Z,5.16
2023-03-15T06:02:08.468Z,5.14
2023-03-15T06:04:45.117Z,5.11
2023-03-15T06:07:16.967Z,5.19
2023-03-15T06:09:44.888Z,5.21
2023-03-15T06:12:12.674Z,5.26
2023-03-15T06:14:41.940Z,5.38
2023-03-15T06:17:11.000Z,5.38
2023-03-15T06:19:41.792Z,5.49
2023-03-15T06:22:11.026Z,5.52
2023-03-15T06:24:53.766Z,5.62
2023-03-15T06:27:23.304Z,5.67
2023-03-15T06:29:54.277Z,5.65
2023-03-15T06:32:23.512Z,5.80
2023-03-15T06:34:52.494Z,5.99
2023-03-15T06:37:34.105Z,5.95
2023-03-15T06:40:11.516Z,5.87
2023-03-15T06:42:41.769Z,5.96
2023-03-15T06:45:13.208Z,5.89
2023-03-15T06:47:41.426Z,5.94
2023-03-15T06:50:10.125Z,6.04
2023-03-15T06:52:38.901Z,6.21
2023-03-15T06:55:07.183Z,6.33
2023-03-15T06:57:34.899Z,6.37
2023-03-15T07:00:02.498Z,6.43
2023-03-15T07:02:37.069Z,6.49
2023-03-15T07:05:05.720Z,6.54
2023-03-15T07:07:33.717Z,6.58
2023-03-15T07:10:01.518Z,6.67
2023-03-15T07:12:29.402Z,6.86
2023-03-15T07:14:57.014Z,6.88
2023-03-15T07:17:24.923Z,6.91
2023-03-15T07:19:56.533Z,6.77
2023-03-15T07:22:26.662Z,6.97
2023-03-15T07:24:54.311Z,7.09
2023-03-15T07:27:21.762Z,7.11
2023-03-15T07:29:51.511Z,7.16
2023-03-15T07:32:19.140Z,7.23
2023-03-15T07:34:46.660Z,7.35
2023-03-15T07:37:14.563Z,7.34
2023-03-15T07:39:42.141Z,7.42
2023-03-15T07:42:10.187Z,7.54
2023-03-15T07:44:42.749Z,7.62
2023-03-15T07:47:10.959Z,7.68
2023-03-15T07:49:38.789Z,7.79
2023-03-15T07:52:06.784Z,7.90
2023-03-15T07:54:34.494Z,8.01
2023-03-15T07:57:02.720Z,8.12
2023-03-15T07:59:34.173Z,8.21
2023-03-15T08:02:04.633Z,8.31
2023-03-15T08:04:33.431Z,8.40
2023-03-15T08:07:02.518Z,8.40
2023-03-15T08:09:32.999Z,8.40
2023-03-15T08:12:01.276Z,8.41
2023-03-15T08:14:31.627Z,8.42
2023-03-15T08:16:59.215Z,8.51
2023-03-15T08:19:30.498Z,8.55
2023-03-15T08:21:59.251Z,8.63
2023-03-15T08:24:27.200Z,8.80
2023-03-15T08:26:58.278Z,8.93
2023-03-15T08:29:25.895Z,9.01
2023-03-15T08:31:53.281Z,9.14
2023-03-15T08:34:21.720Z,8.97
2023-03-15T08:36:56.186Z,8.87
2023-03-15T08:39:24.050Z,9.02
2023-03-15T08:41:51.710Z,9.17
2023-03-15T08:44:19.857Z,9.10
2023-03-15T08:46:47.719Z,9.14
2023-03-15T08:49:15.373Z,9.42
2023-03-15T08:51:46.401Z,9.49
2023-03-15T08:54:14.450Z,9.44
2023-03-15T08:56:42.817Z,9.38
2023-03-15T08:59:12.842Z,9.49
2023-03-15T09:01:42.009Z,9.50
2023-03-15T09:04:10.216Z,9.65
2023-03-15T09:06:38.235Z,9.76
2023-03-15T09:09:06.789Z,9.81
2023-03-15T09:11:34.684Z,9.86
2023-03-15T09:14:02.147Z,10.06
2023-03-15T09:16:31.707Z,9.99
2023-03-15T09:19:00.883Z,10.25
2023-03-15T09:21:28.769Z,10.46
2023-03-15T09:23:56.376Z,10.45
2023-03-15T09:26:23.966Z,10.44
2023-03-15T09:28:51.603Z,10.57
2023-03-15T09:31:19.297Z,10.73
2023-03-15T09:33:47.089Z,10.90
2023-03-15T09:36:15.097Z,11.05
2023-03-15T09:38:44.205Z,10.88
2023-03-15T09:41:21.061Z,10.69
2023-03-15T09:44:16.017Z,10.75
2023-03-15T09:46:57.877Z,10.77
2023-03-15T09:49:52.376Z,10.90
2023-03-15T09:52:26.008Z,10.96
2023-03-15T09:55:00.220Z,11.07
2023-03-15T09:57:39.057Z,11.03
2023-03-15T10:00:12.098Z,11.15
2023-03-15T10:02:55.374Z,11.38
2023-03-15T10:05:38.055Z,11.59
2023-03-15T10:08:11.852Z,11.72
2023-03-15T10:10:51.148Z,11.79
2023-03-15T10:13:43.853Z,11.85
2023-03-15T10:16:20.128Z,11.73
2023-03-15T10:19:02.727Z,11.46
2023-03-15T10:21:46.335Z,11.59
2023-03-15T10:24:21.295Z,11.76
2023-03-15T10:26:52.155Z,11.80
2023-03-15T10:29:24.156Z,11.99
2023-03-15T10:31:54.508Z,11.99
2023-03-15T10:34:22.933Z,11.47
2023-03-15T10:36:55.553Z,11.63
2023-03-15T10:39:25.809Z,11.64
2023-03-15T10:41:53.564Z,11.72
2023-03-15T10:44:26.866Z,11.92
2023-03-15T10:47:07.113Z,12.17
2023-03-15T10:49:41.914Z,12.02
2023-03-15T10:52:37.307Z,11.93
2023-03-15T10:55:07.848Z,11.81
2023-03-15T10:57:39.814Z,11.69
2023-03-15T11:00:32.148Z,11.93
2023-03-15T11:03:20.085Z,12.28
2023-03-15T11:05:50.851Z,12.68
2023-03-15T11:08:39.162Z,12.61
2023-03-15T11:11:07.958Z,12.58
2023-03-15T11:13:42.214Z,12.46
2023-03-15T11:16:14.046Z,12.55
2023-03-15T11:18:47.449Z,12.69
2023-03-15T11:21:18.769Z,12.90
2023-03-15T11:23:49.808Z,13.05
2023-03-15T11:26:31.441Z,13.14
2023-03-15T11:29:19.549Z,13.18
2023-03-15T11:31:48.105Z,13.18
2023-03-15T11:34:22.325Z,13.08
2023-03-15T11:37:05.567Z,13.12
2023-03-15T11:39:45.599Z,13.12
2023-03-15T11:42:21.444Z,12.82
2023-03-15T11:44:55.117Z,12.78
2023-03-15T11:47:46.379Z,12.96
2023-03-15T11:50:15.869Z,12.89
2023-03-15T11:52:47.874Z,12.84
2023-03-15T11:55:27.297Z,12.68
2023-03-15T11:57:58.011Z,12.48
2023-03-15T12:00:45.686Z,12.51
2023-03-15T12:03:28.685Z,12.39
2023-03-15T12:06:05.826Z,12.43
2023-03-15T12:08:36.747Z,12.52
2023-03-15T12:11:33.872Z,12.53
2023-03-15T12:14:01.714Z,12.54
2023-03-15T12:16:34.911Z,12.58
2023-03-15T12:19:21.126Z,12.52
2023-03-15T12:21:58.940Z,12.72
2023-03-15T12:24:38.809Z,12.87
2023-03-15T12:27:16.281Z,13.05
2023-03-15T12:29:50.984Z,13.05
2023-03-15T12:32:19.172Z,12.97
2023-03-15T12:35:15.501Z,12.97
2023-03-15T12:37:46.607Z,13.09
2023-03-15T12:40:20.582Z,13.15
2023-03-15T12:42:52.677Z,13.13
2023-03-15T12:45:20.533Z,13.23
2023-03-15T12:48:12.950Z,13.27
2023-03-15T12:50:47.163Z,13.41
2023-03-15T12:53:22.550Z,13.39
2023-03-15T12:55:54.124Z,13.35
2023-03-15T12:58:36.107Z,13.14
2023-03-15T13:01:06.294Z,13.17
2023-03-15T13:03:36.958Z,13.20
2023-03-15T13:06:08.635Z,13.14
2023-03-15T13:09:17.789Z,13.04
2023-03-15T13:12:03.752Z,12.72
2023-03-15T13:14:31.892Z,12.67
2023-03-15T13:17:20.972Z,12.60
2023-03-15T13:20:05.396Z,12.58
2023-03-15T13:23:02.803Z,12.52
2023-03-15T13:25:38.346Z,12.49
2023-03-15T13:28:16.378Z,12.44
2023-03-15T13:30:52.740Z,12.33
2023-03-15T13:33:32.858Z,12.24
2023-03-15T13:36:04.189Z,12.32
2023-03-15T13:38:37.803Z,12.45
2023-03-15T13:41:15.935Z,12.57
2023-03-15T13:43:45.598Z,12.59
2023-03-15T13:46:20.068Z,12.69
2023-03-15T13:48:49.504Z,12.70
2023-03-15T13:51:35.308Z,12.71
2023-03-15T13:54:30.667Z,12.43
2023-03-15T13:57:06.570Z,12.39
2023-03-15T13:59:45.540Z,12.31
2023-03-15T14:02:18.340Z,12.22
2023-03-15T14:04:57.810Z,12.14
2023-03-15T14:07:37.311Z,12.12
2023-03-15T14:10:19.712Z,12.16
2023-03-15T14:12:48.448Z,12.15
2023-03-15T14:15:44.288Z,12.26
2023-03-15T14:18:42.009Z,12.27
2023-03-15T14:21:16.260Z,12.30
2023-03-15T14:23:46.983Z,12.26
2023-03-15T14:26:23.541Z,12.24
2023-03-15T14:29:14.338Z,12.18
2023-03-15T14:31:51.038Z,12.10
2023-03-15T14:34:45.714Z,12.06
2023-03-15T14:37:36.005Z,12.06
2023-03-15T14:40:15.799Z,12.10
2023-03-15T14:42:44.639Z,12.09
2023-03-15T14:45:12.848Z,12.04
2023-03-15T14:47:58.538Z,12.00
2023-03-15T14:50:31.100Z,11.98
2023-03-15T14:52:59.165Z,11.92
2023-03-15T14:55:33.622Z,11.93
2023-03-15T14:58:10.989Z,11.92
2023-03-15T15:00:44.970Z,11.92
2023-03-15T15:03:22.984Z,11.92
2023-03-15T15:05:51.371Z,11.90
2023-03-15T15:08:24.568Z,11.88
2023-03-15T15:10:55.646Z,11.77
2023-03-15T15:13:28.008Z,11.69
2023-03-15T15:15:57.063Z,11.62
2023-03-15T15:18:27.555Z,11.66
2023-03-15T15:20:56.641Z,11.65
2023-03-15T15:23:41.855Z,11.65
2023-03-15T15:26:20.604Z,11.54
2023-03-15T15:28:49.994Z,11.42
2023-03-15T15:31:22.862Z,11.42
2023-03-15T15:33:55.780Z,11.35
2023-03-15T15:36:26.961Z,11.34
2023-03-15T15:38:54.733Z,11.39
2023-03-15T15:41:24.922Z,11.45
2023-03-15T15:43:55.591Z,11.41
2023-03-15T15:46:24.125Z,11.45
2023-03-15T15:48:52.454Z,11.35
2023-03-15T15:51:34.926Z,11.27
2023-03-15T15:54:02.704Z,11.16
2023-03-15T15:56:37.075Z,11.04
2023-03-15T15:59:05.617Z,10.93
2023-03-15T16:01:33.444Z,10.86
2023-03-15T16:04:02.436Z,10.81
2023-03-15T16:06:33.053Z,10.82
2023-03-15T16:09:01.113Z,10.65
2023-03-15T16:11:32.974Z,10.57
2023-03-15T16:14:01.123Z,10.59
2023-03-15T16:16:29.064Z,10.50
2023-03-15T16:18:58.028Z,10.44
2023-03-15T16:21:42.097Z,10.36
2023-03-15T16:24:36.485Z,10.15
2023-03-15T16:27:06.463Z,9.91
2023-03-15T16:29:48.584Z,9.78
2023-03-15T16:32:32.960Z,9.69
2023-03-15T16:35:15.757Z,9.57
2023-03-15T16:37:46.294Z,9.55
2023-03-15T16:40:28.526Z,9.53
2023-03-15T16:42:57.771Z,9.47
2023-03-15T16:45:26.384Z,9.40
2023-03-15T16:47:56.441Z,9.32
2023-03-15T16:50:24.523Z,9.29
2023-03-15T16:52:55.019Z,9.25
2023-03-15T16:55:26.495Z,9.26
2023-03-15T16:57:57.064Z,9.12
2023-03-15T17:00:25.636Z,8.97
2023-03-15T17:02:53.456Z,8.91
2023-03-15T17:05:24.955Z,8.96
2023-03-15T17:07:55.334Z,8.86
2023-03-15T17:10:29.421Z,8.91
2023-03-15T17:13:03.012Z,8.87
2023-03-15T17:15:30.891Z,8.88
2023-03-15T17:17:58.502Z,8.91
2023-03-15T17:20:29.066Z,8.80
2023-03-15T17:23:04.399Z,8.82
2023-03-15T17:25:34.180Z,8.85
2023-03-15T17:28:03.011Z,8.81
2023-03-15T17:30:34.009Z,8.67
2023-03-15T17:33:05.425Z,8.54
2023-03-15T17:35:37.858Z,8.47
2023-03-15T17:38:11.007Z,8.42
2023-03-15T17:40:40.208Z,8.41
2023-03-15T17:43:12.826Z,8.30
2023-03-15T17:45:40.712Z,8.24
2023-03-15T17:48:08.444Z,8.14
2023-03-15T17:50:36.390Z,8.21
2023-03-15T17:53:07.921Z,8.18
2023-03-15T17:55:35.513Z,8.06
2023-03-15T17:58:11.341Z,8.03
2023-03-15T18:00:39.837Z,7.97
2023-03-15T18:03:07.415Z,7.82
2023-03-15T18:05:34.984Z,7.78
2023-03-15T18:08:04.230Z,7.79
2023-03-15T18:10:36.107Z,7.76
2023-03-15T18:13:05.027Z,7.78
2023-03-15T18:15:33.943Z,7.68
2023-03-15T18:18:01.841Z,7.62
2023-03-15T18:20:30.582Z,7.58
2023-03-15T18:22:58.236Z,7.59
2023-03-15T18:25:29.231Z,7.53
2023-03-15T18:27:56.756Z,7.45
2023-03-15T18:30:26.156Z,7.49
2023-03-15T18:32:56.690Z,7.42
2023-03-15T18:35:27.838Z,7.39
2023-03-15T18:37:57.509Z,7.45
2023-03-15T18:40:26.654Z,7.39
2023-03-15T18:42:58.002Z,7.39
2023-03-15T18:45:34.494Z,7.37
2023-03-15T18:48:02.170Z,7.33
2023-03-15T18:50:30.516Z,7.33
2023-03-15T18:52:58.428Z,7.23
2023-03-15T18:55:26.990Z,7.25
2023-03-15T18:57:55.383Z,7.17
2023-03-15T19:00:29.648Z,7.31
2023-03-15T19:02:59.909Z,7.36
2023-03-15T19:05:29.476Z,7.28
2023-03-15T19:07:59.119Z,7.33
2023-03-15T19:10:27.691Z,7.35
2023-03-15T19:12:55.881Z,7.31
2023-03-15T19:15:23.883Z,7.29
2023-03-15T19:17:54.608Z,7.36
2023-03-15T19:20:23.207Z,7.24
2023-03-15T19:22:52.142Z,7.25
2023-03-15T19:25:20.398Z,7.20
2023-03-15T19:27:48.641Z,7.22
2023-03-15T19:30:20.979Z,7.23
2023-03-15T19:32:50.313Z,7.24
2023-03-15T19:35:19.568Z,7.24
2023-03-15T19:37:48.419Z,7.27
2023-03-15T19:40:20.093Z,7.28
2023-03-15T19:42:51.218Z,7.19
2023-03-15T19:45:19.431Z,7.08
2023-03-15T19:47:48.276Z,7.09
2023-03-15T19:50:16.719Z,7.14
2023-03-15T19:52:46.263Z,7.17
2023-03-15T19:55:16.040Z,7.12
2023-03-15T19:57:44.931Z,7.13
2023-03-15T20:00:16.072Z,7.12
2023-03-15T20:02:45.039Z,7.03
2023-03-15T20:05:19.671Z,7.03
2023-03-15T20:07:51.341Z,7.03
2023-03-15T20:10:20.440Z,7.11
2023-03-15T20:12:49.133Z,7.15
2023-03-15T20:15:18.941Z,7.16
2023-03-15T20:17:46.629Z,7.16
2023-03-15T20:20:19.502Z,7.23
2023-03-15T20:22:47.504Z,7.22
2023-03-15T20:25:19.310Z,7.23
2023-03-15T20:27:48.794Z,7.23
2023-03-15T20:30:17.873Z,7.20
2023-03-15T20:32:46.915Z,7.24
2023-03-15T20:35:15.236Z,7.19
2023-03-15T20:37:48.085Z,7.20
2023-03-15T20:40:16.183Z,7.27
2023-03-15T20:42:48.742Z,7.26
2023-03-15T20:45:16.688Z,7.30
2023-03-15T20:47:44.498Z,7.33
2023-03-15T20:50:13.232Z,7.37
2023-03-15T20:52:42.875Z,7.35
2023-03-15T20:55:12.439Z,7.36
2023-03-15T20:57:42.789Z,7.33
2023-03-15T21:00:16.572Z,7.35
2023-03-15T21:02:46.406Z,7.31
2023-03-15T21:05:14.392Z,7.27
2023-03-15T21:07:46.958Z,7.22
2023-03-15T21:10:15.156Z,7.22
2023-03-15T21:12:46.467Z,7.23
2023-03-15T21:15:19.023Z,7.24
2023-03-15T21:17:49.525Z,7.21
2023-03-15T21:20:18.395Z,7.12
2023-03-15T21:22:52.997Z,7.12
2023-03-15T21:25:20.885Z,7.15
2023-03-15T21:27:48.426Z,7.17
2023-03-15T21:30:16.268Z,7.14
2023-03-15T21:32:44.808Z,7.06
2023-03-15T21:35:12.651Z,7.02
2023-03-15T21:37:40.740Z,7.02
2023-03-15T21:40:10.191Z,7.00
2023-03-15T21:42:40.074Z,6.99
2023-03-15T21:45:08.639Z,6.89
2023-03-15T21:47:36.985Z,6.88
2023-03-15T21:50:05.054Z,6.88
2023-03-15T21:52:33.884Z,6.76
2023-03-15T21:55:04.999Z,6.76
2023-03-15T21:57:33.825Z,6.75
2023-03-15T22:00:11.786Z,6.79
2023-03-15T22:02:39.694Z,6.80
2023-03-15T22:05:07.895Z,6.82
2023-03-15T22:07:35.748Z,6.80
2023-03-15T22:10:04.097Z,6.80
2023-03-15T22:12:39.031Z,6.77
2023-03-15T22:15:09.129Z,6.72
2023-03-15T22:17:37.106Z,6.75
2023-03-15T22:20:16.470Z,6.75
2023-03-15T22:22:45.966Z,6.77
2023-03-15T22:25:13.964Z,6.79
2023-03-15T22:27:42.949Z,6.82
2023-03-15T22:30:13.652Z,6.88
2023-03-15T22:32:45.072Z,6.97
2023-03-15T22:35:15.958Z,7.00
2023-03-15T22:37:44.277Z,7.02
2023-03-15T22:40:16.366Z,7.00
2023-03-15T22:42:44.368Z,7.00
2023-03-15T22:45:11.968Z,6.95
2023-03-15T22:47:40.315Z,6.93
2023-03-15T22:50:09.251Z,6.91
2023-03-15T22:52:36.934Z,6.97
2023-03-15T22:55:05.618Z,7.01
2023-03-15T22:57:33.926Z,7.02
2023-03-15T23:00:02.037Z,6.98
2023-03-15T23:02:32.967Z,6.96
2023-03-15T23:05:01.853Z,6.89
2023-03-15T23:07:29.584Z,6.79
2023-03-15T23:09:58.450Z,6.75
2023-03-15T23:12:35.836Z,6.75
2023-03-15T23:15:05.062Z,6.72
2023-03-15T23:17:34.016Z,6.74
2023-03-15T23:20:01.606Z,6.82
2023-03-15T23:22:29.695Z,6.86
2023-03-15T23:24:58.705Z,6.93
2023-03-15T23:27:26.726Z,6.98
2023-03-15T23:29:55.349Z,6.99
2023-03-15T23:32:25.090Z,7.00
2023-03-15T23:34:56.727Z,7.09
2023-03-15T23:37:24.672Z,7.17
2023-03-15T23:39:53.505Z,7.16
2023-03-15T23:42:25.930Z,7.09
2023-03-15T23:44:57.159Z,7.08
2023-03-15T23:47:31.768Z,7.15
2023-03-15T23:49:59.349Z,7.02
2023-03-15T23:52:26.856Z,7.00
2023-03-15T23:54:54.778Z,7.07
2023-03-15T23:57:22.645Z,7.06
2023-03-15T23:59:54.054Z,7.07
